Main page
METAR-TAF:

METAR-TAF

Airports :

Lydd Airport

Lydd, England

latitude: 50-57N, longitude: 000-56E, elevation: 3 m

Current weather observation

The report was made 10 minutes ago, at 20:20 UTC
Wind 2 kt from the West
Temperature 4°C
Humidity 87%
Pressure 1037 hPa
Visibility 10 km or more

METAR: EGMD 222020Z AUTO 26002KT 9999 OVC019/// 04/02 Q1037

Time: 20:30 (20:30 UTC)

Forecast

The report was made 3 hours and 28 minutes ago, at 17:02 UTC
Forecast valid from 22 at 18 UTC to 23 at 03 UTC
Wind 6 kt from the West/Northwest
Visibility 10 km or more
Scattered clouds at a height of 2000 ft
Probability 30% :
Temporary
from 22 at 18 UTC to 22 at 21 UTC
Broken clouds at a height of 1400 ft

TAF: EGMD 221702Z 2218/2303 29006KT 9999 SCT020 PROB30 TEMPO 2218/2221 BKN014

Weather observations and forecasts of more than 4000 airports (METAR and TAF reports).

The available stations are represented by yellow and red dots on the map.

Hover mouse over dot to see the name of the station.

Then click to see weather observations and forecasts.

To change the map : click on the green buttons with a black cross to zoom in, on the green button with a dash to zoom out, or on the green arrows for adjacent maps.


METAR-TAF: